Time;durP1;ratioP1;P1;durP2;ratioP2;P2;SDS_P1;SDS_P2;PMS_P1;PMS_P2;Temp;Humidity;BMP_temperature;BMP_pressure;BME280_temperature;BME280_humidity;BME280_pressure;Samples;Min_cycle;Max_cycle;Signal;HPM_P1;HPM_P2
2023/11/10 00:00:10;;;;;;;2.20;0.70;;;;;;;;;;485124;28;1154;-73
2023/11/10 00:00:25;;;;;;;2.78;0.75;;;;;;;;;;485657;28;1150;-73
2023/11/10 00:00:41;;;;;;;2.05;0.77;;;;;;;;;;486347;28;1191;-72
2023/11/10 00:00:56;;;;;;;2.10;0.73;;;;;;;;;;486170;28;898;-73
2023/11/10 00:01:13;;;;;;;2.88;0.82;;;;;;;;;;486687;28;958;-73
2023/11/10 00:01:28;;;;;;;2.95;0.80;;;;;;;;;;487053;28;1104;-72
2023/11/10 00:01:44;;;;;;;2.53;0.70;;;;;;;;;;487011;28;1065;-73
2023/11/10 00:02:02;;;;;;;2.03;0.70;;;;;;;;;;487173;28;1567;-74
2023/11/10 00:02:18;;;;;;;1.52;0.70;;;;;;;;;;486177;28;1013;-73
2023/11/10 00:02:33;;;;;;;1.90;0.70;;;;;;;;;;484501;28;1172;-73
2023/11/10 00:02:51;;;;;;;2.20;0.80;;;;;;;;;;484817;28;1421;-73
2023/11/10 00:03:06;;;;;;;1.67;0.57;;;;;;;;;;483263;28;1297;-73
2023/11/10 00:03:22;;;;;;;1.88;0.60;;;;;;;;;;483507;28;1177;-72
2023/11/10 00:03:37;;;;;;;2.63;0.70;;;;;;;;;;482261;28;1350;-72
2023/11/10 00:03:53;;;;;;;2.20;0.60;;;;;;;;;;484239;28;1004;-72
2023/11/10 00:04:08;;;;;;;2.07;0.60;;;;;;;;;;484562;28;1046;-72
2023/11/10 00:04:24;;;;;;;2.10;0.68;;;;;;;;;;484792;28;1148;-72
2023/11/10 00:04:39;;;;;;;2.57;0.70;;;;;;;;;;484837;28;1197;-72
2023/11/10 00:04:55;;;;;;;2.75;0.60;;;;;;;;;;485100;28;915;-72
2023/11/10 00:05:11;;;;;;;2.47;0.70;;;;;;;;;;487207;28;1333;-72
2023/11/10 00:05:27;;;;;;;2.53;0.70;;;;;;;;;;488035;28;1198;-72
2023/11/10 00:05:42;;;;;;;2.30;0.60;;;;;;;;;;487691;28;1250;-72
2023/11/10 00:05:58;;;;;;;1.73;0.65;;;;;;;;;;486249;28;1345;-72
2023/11/10 00:06:13;;;;;;;1.30;0.60;;;;;;;;;;485659;28;1215;-72
2023/11/10 00:06:29;;;;;;;1.15;0.50;;;;;;;;;;485211;28;1431;-72
2023/11/10 00:06:45;;;;;;;1.90;0.70;;;;;;;;;;483350;28;1144;-72
2023/11/10 00:07:00;;;;;;;2.10;0.77;;;;;;;;;;481572;28;1261;-72
2023/11/10 00:07:17;;;;;;;2.08;0.70;;;;;;;;;;481297;28;1422;-72
2023/11/10 00:07:34;;;;;;;2.30;0.68;;;;;;;;;;482995;28;1054;-72
2023/11/10 00:07:49;;;;;;;1.90;0.60;;;;;;;;;;482951;28;957;-72
2023/11/10 00:08:09;;;;;;;1.65;0.60;;;;;;;;;;484951;28;1081;-72
2023/11/10 00:08:25;;;;;;;1.83;0.80;;;;;;;;;;484722;28;1179;-72
2023/11/10 00:08:40;;;;;;;1.63;0.80;;;;;;;;;;483379;28;1294;-71
2023/11/10 00:08:56;;;;;;;1.65;0.75;;;;;;;;;;482410;28;1356;-72
2023/11/10 00:09:16;;;;;;;2.22;0.80;;;;;;;;;;484715;28;911;-72
2023/11/10 00:09:34;;;;;;;2.28;0.60;;;;;;;;;;486043;28;1117;-72
2023/11/10 00:09:49;;;;;;;2.15;0.68;;;;;;;;;;483745;28;1423;-72
2023/11/10 00:10:07;;;;;;;1.50;0.60;;;;;;;;;;484119;28;1037;-72
2023/11/10 00:10:23;;;;;;;1.40;0.60;;;;;;;;;;484103;28;1031;-72
2023/11/10 00:10:39;;;;;;;0.90;0.50;;;;;;;;;;484854;28;1478;-72
2023/11/10 00:10:55;;;;;;;1.33;0.50;;;;;;;;;;485528;28;1281;-72
2023/11/10 00:11:11;;;;;;;2.00;0.60;;;;;;;;;;482569;28;1241;-72
2023/11/10 00:11:26;;;;;;;1.57;0.60;;;;;;;;;;483174;28;1049;-72
2023/11/10 00:11:42;;;;;;;1.40;0.60;;;;;;;;;;482846;28;1262;-72
2023/11/10 00:11:57;;;;;;;1.83;0.60;;;;;;;;;;483725;28;1115;-72
2023/11/10 00:12:14;;;;;;;2.27;0.70;;;;;;;;;;482848;28;1004;-72
2023/11/10 00:12:30;;;;;;;1.85;0.70;;;;;;;;;;484349;28;1106;-73
2023/11/10 00:12:46;;;;;;;1.98;0.65;;;;;;;;;;484316;28;1085;-72
2023/11/10 00:13:02;;;;;;;2.85;0.70;;;;;;;;;;485386;28;1403;-72
2023/11/10 00:13:18;;;;;;;2.22;0.65;;;;;;;;;;486469;28;981;-72
2023/11/10 00:13:34;;;;;;;2.77;0.70;;;;;;;;;;486404;28;1118;-73
2023/11/10 00:13:49;;;;;;;3.17;0.80;;;;;;;;;;489535;28;1403;-72
2023/11/10 00:14:05;;;;;;;2.37;0.70;;;;;;;;;;486783;28;1177;-73
2023/11/10 00:14:20;;;;;;;2.57;0.80;;;;;;;;;;489323;28;1310;-72
2023/11/10 00:14:36;;;;;;;2.10;0.60;;;;;;;;;;486584;28;964;-72
2023/11/10 00:14:51;;;;;;;2.05;0.60;;;;;;;;;;485510;28;1418;-72
2023/11/10 00:15:08;;;;;;;1.97;0.67;;;;;;;;;;484865;28;1265;-72
2023/11/10 00:15:24;;;;;;;1.25;0.57;;;;;;;;;;484917;28;1191;-72
2023/11/10 00:15:40;;;;;;;1.47;0.60;;;;;;;;;;483753;28;1083;-72
2023/11/10 00:15:55;;;;;;;2.00;0.70;;;;;;;;;;483433;28;1286;-72
2023/11/10 00:16:11;;;;;;;2.10;0.70;;;;;;;;;;484464;28;883;-72
2023/11/10 00:16:26;;;;;;;2.00;0.60;;;;;;;;;;486027;28;1313;-72
2023/11/10 00:16:44;;;;;;;2.20;0.60;;;;;;;;;;486922;28;1162;-72
2023/11/10 00:16:59;;;;;;;1.80;0.52;;;;;;;;;;485782;28;1265;-73
2023/11/10 00:17:17;;;;;;;1.67;0.60;;;;;;;;;;486586;28;972;-73
2023/11/10 00:17:32;;;;;;;1.75;0.68;;;;;;;;;;486176;28;1108;-72
2023/11/10 00:17:48;;;;;;;2.35;0.70;;;;;;;;;;487719;28;1038;-72
2023/11/10 00:18:03;;;;;;;2.75;0.77;;;;;;;;;;487065;28;1309;-72
2023/11/10 00:18:19;;;;;;;2.13;0.60;;;;;;;;;;487295;28;1127;-73
2023/11/10 00:18:34;;;;;;;1.80;0.60;;;;;;;;;;483587;28;1151;-72
2023/11/10 00:18:50;;;;;;;2.20;0.70;;;;;;;;;;484188;28;1081;-72
2023/11/10 00:19:07;;;;;;;2.30;0.70;;;;;;;;;;484518;28;1014;-72
2023/11/10 00:19:24;;;;;;;2.40;0.60;;;;;;;;;;485169;28;1394;-72
2023/11/10 00:19:45;;;;;;;2.05;0.70;;;;;;;;;;484880;28;1148;-72
2023/11/10 00:20:01;;;;;;;1.77;0.65;;;;;;;;;;487025;28;1049;-72
2023/11/10 00:20:17;;;;;;;1.90;0.70;;;;;;;;;;486048;28;902;-72
2023/11/10 00:20:36;;;;;;;2.05;0.70;;;;;;;;;;485906;28;1422;-72
2023/11/10 00:20:51;;;;;;;1.80;0.68;;;;;;;;;;484846;28;1414;-72
2023/11/10 00:21:07;;;;;;;2.20;0.63;;;;;;;;;;487062;28;1211;-72
2023/11/10 00:21:27;;;;;;;1.70;0.60;;;;;;;;;;486693;28;1030;-72
2023/11/10 00:21:42;;;;;;;1.55;0.60;;;;;;;;;;486358;28;1273;-72
2023/11/10 00:21:58;;;;;;;1.70;0.50;;;;;;;;;;486773;28;1052;-72
2023/11/10 00:22:13;;;;;;;1.48;0.60;;;;;;;;;;485022;28;1937;-72
2023/11/10 00:22:31;;;;;;;1.83;0.70;;;;;;;;;;486209;28;1183;-72
2023/11/10 00:22:48;;;;;;;1.90;0.70;;;;;;;;;;487971;28;1638;-72
2023/11/10 00:23:07;;;;;;;1.73;0.60;;;;;;;;;;484908;28;1274;-72
2023/11/10 00:23:23;;;;;;;1.77;0.60;;;;;;;;;;484849;28;985;-72
2023/11/10 00:23:38;;;;;;;1.75;0.60;;;;;;;;;;483956;28;1278;-72
2023/11/10 00:23:54;;;;;;;1.37;0.50;;;;;;;;;;484352;28;1057;-72
2023/11/10 00:24:09;;;;;;;1.27;0.50;;;;;;;;;;483956;28;1382;-72
2023/11/10 00:24:25;;;;;;;2.07;0.60;;;;;;;;;;485434;28;1022;-72
2023/11/10 00:24:40;;;;;;;2.65;0.70;;;;;;;;;;484718;28;1298;-72
2023/11/10 00:24:56;;;;;;;1.77;0.70;;;;;;;;;;483157;28;1311;-72
2023/11/10 00:25:11;;;;;;;1.38;0.60;;;;;;;;;;484004;28;1259;-72
2023/11/10 00:25:27;;;;;;;1.35;0.60;;;;;;;;;;483407;28;1314;-72
2023/11/10 00:25:42;;;;;;;1.77;0.60;;;;;;;;;;483532;28;1004;-72
2023/11/10 00:25:58;;;;;;;2.30;0.70;;;;;;;;;;483325;28;962;-72
2023/11/10 00:26:23;;;;;;;1.83;0.70;;;;;;;;;;485518;28;1326;-72
2023/11/10 00:26:39;;;;;;;1.50;0.70;;;;;;;;;;485147;28;1414;-72
2023/11/10 00:26:54;;;;;;;1.40;0.63;;;;;;;;;;486094;28;1314;-72
2023/11/10 00:27:13;;;;;;;2.08;0.70;;;;;;;;;;483593;28;1457;-72
2023/11/10 00:27:28;;;;;;;2.50;0.60;;;;;;;;;;482579;28;1109;-72
2023/11/10 00:27:43;;;;;;;2.10;0.50;;;;;;;;;;481735;28;1198;-72
2023/11/10 00:28:01;;;;;;;2.47;0.77;;;;;;;;;;481470;28;1090;-72
2023/11/10 00:28:17;;;;;;;2.38;0.82;;;;;;;;;;483558;28;1032;-72
2023/11/10 00:28:32;;;;;;;2.13;0.70;;;;;;;;;;483724;28;1035;-72
2023/11/10 00:28:48;;;;;;;2.17;0.70;;;;;;;;;;485138;28;982;-72
2023/11/10 00:29:04;;;;;;;1.42;0.60;;;;;;;;;;485432;28;1022;-72
2023/11/10 00:29:19;;;;;;;1.87;0.60;;;;;;;;;;486820;28;918;-72
2023/11/10 00:29:39;;;;;;;2.67;0.70;;;;;;;;;;486369;28;1005;-72
2023/11/10 00:29:55;;;;;;;2.58;0.73;;;;;;;;;;486072;28;1086;-72
2023/11/10 00:30:12;;;;;;;3.10;0.80;;;;;;;;;;486908;28;1091;-73
2023/11/10 00:30:28;;;;;;;2.70;0.70;;;;;;;;;;486817;28;1088;-72
2023/11/10 00:30:44;;;;;;;2.15;0.60;;;;;;;;;;486664;28;1306;-72
2023/11/10 00:30:59;;;;;;;2.55;0.60;;;;;;;;;;486994;28;920;-72
2023/11/10 00:31:15;;;;;;;2.37;0.70;;;;;;;;;;486895;28;1405;-72
2023/11/10 00:31:30;;;;;;;1.70;0.65;;;;;;;;;;486808;28;1383;-72
2023/11/10 00:31:46;;;;;;;1.70;0.60;;;;;;;;;;486687;28;951;-72
2023/11/10 00:32:01;;;;;;;2.30;0.70;;;;;;;;;;485321;28;1242;-72
2023/11/10 00:32:16;;;;;;;2.47;0.70;;;;;;;;;;486564;28;1180;-72
2023/11/10 00:32:36;;;;;;;2.30;0.60;;;;;;;;;;487155;28;1155;-72
2023/11/10 00:32:51;;;;;;;2.67;0.70;;;;;;;;;;486374;28;1108;-74
2023/11/10 00:33:07;;;;;;;1.95;0.70;;;;;;;;;;487245;28;1035;-72
2023/11/10 00:33:22;;;;;;;1.20;0.60;;;;;;;;;;486565;28;928;-72
2023/11/10 00:33:38;;;;;;;2.05;0.70;;;;;;;;;;486920;28;1195;-72
2023/11/10 00:33:53;;;;;;;2.80;0.70;;;;;;;;;;487352;28;1063;-72
2023/11/10 00:34:09;;;;;;;2.83;0.70;;;;;;;;;;486314;28;1267;-72
2023/11/10 00:34:24;;;;;;;3.23;0.70;;;;;;;;;;484648;28;1333;-72
2023/11/10 00:34:40;;;;;;;3.10;0.80;;;;;;;;;;483780;28;1210;-72
2023/11/10 00:34:56;;;;;;;2.08;0.70;;;;;;;;;;482860;28;1305;-72
2023/11/10 00:35:11;;;;;;;2.10;0.73;;;;;;;;;;482748;28;1213;-72
2023/11/10 00:35:27;;;;;;;2.08;0.77;;;;;;;;;;482465;28;1103;-72
2023/11/10 00:35:42;;;;;;;2.07;0.70;;;;;;;;;;483129;28;957;-72
2023/11/10 00:35:58;;;;;;;2.25;0.80;;;;;;;;;;483934;28;1129;-72
2023/11/10 00:36:13;;;;;;;2.50;0.90;;;;;;;;;;483219;28;1291;-72
2023/11/10 00:36:29;;;;;;;2.25;0.77;;;;;;;;;;484443;28;1214;-72
2023/11/10 00:36:45;;;;;;;2.50;0.77;;;;;;;;;;485242;28;1075;-72
2023/11/10 00:37:00;;;;;;;2.60;0.80;;;;;;;;;;486695;28;973;-72
2023/11/10 00:37:16;;;;;;;1.98;0.70;;;;;;;;;;485772;28;1251;-73
2023/11/10 00:37:32;;;;;;;2.50;0.70;;;;;;;;;;487208;28;1228;-72
2023/11/10 00:37:50;;;;;;;2.13;0.70;;;;;;;;;;488402;28;1365;-72
2023/11/10 00:38:05;;;;;;;1.88;0.75;;;;;;;;;;488651;28;1386;-72
2023/11/10 00:38:21;;;;;;;1.75;0.80;;;;;;;;;;486159;28;1317;-72
2023/11/10 00:38:36;;;;;;;2.07;0.80;;;;;;;;;;486855;28;1300;-72
2023/11/10 00:38:52;;;;;;;2.70;0.82;;;;;;;;;;487067;28;1108;-72
2023/11/10 00:39:07;;;;;;;2.40;0.80;;;;;;;;;;486857;28;1327;-72
2023/11/10 00:39:23;;;;;;;2.08;0.70;;;;;;;;;;485999;28;1469;-72
2023/11/10 00:39:38;;;;;;;2.17;0.70;;;;;;;;;;485829;28;1065;-72
2023/11/10 00:39:57;;;;;;;2.85;0.77;;;;;;;;;;481742;28;1241;-72
2023/11/10 00:40:13;;;;;;;2.20;0.70;;;;;;;;;;483755;28;1065;-72
2023/11/10 00:40:30;;;;;;;1.93;0.80;;;;;;;;;;484194;28;1029;-73
2023/11/10 00:40:46;;;;;;;2.53;0.80;;;;;;;;;;485571;28;1443;-72
2023/11/10 00:41:01;;;;;;;2.65;0.80;;;;;;;;;;485525;28;984;-72
2023/11/10 00:41:19;;;;;;;2.77;0.83;;;;;;;;;;486901;28;1093;-72
2023/11/10 00:41:34;;;;;;;2.13;0.77;;;;;;;;;;485740;28;1265;-72
2023/11/10 00:41:49;;;;;;;2.15;0.80;;;;;;;;;;487375;28;970;-72
2023/11/10 00:42:05;;;;;;;2.10;0.80;;;;;;;;;;488447;28;2016;-72
2023/11/10 00:42:20;;;;;;;2.40;0.70;;;;;;;;;;487833;28;1021;-72
2023/11/10 00:42:36;;;;;;;2.20;0.60;;;;;;;;;;485176;28;1175;-72
2023/11/10 00:42:51;;;;;;;2.42;0.77;;;;;;;;;;484548;28;1533;-72
2023/11/10 00:43:07;;;;;;;3.20;1.03;;;;;;;;;;484312;28;1270;-71
2023/11/10 00:43:22;;;;;;;3.35;1.00;;;;;;;;;;484796;28;952;-72
2023/11/10 00:43:38;;;;;;;2.83;0.80;;;;;;;;;;486949;28;929;-72
2023/11/10 00:43:54;;;;;;;2.65;0.80;;;;;;;;;;486852;28;1217;-72
2023/11/10 00:44:10;;;;;;;2.00;0.70;;;;;;;;;;487252;28;1219;-72
2023/11/10 00:44:27;;;;;;;1.77;0.80;;;;;;;;;;486692;28;1215;-72
2023/11/10 00:44:42;;;;;;;2.63;0.80;;;;;;;;;;484141;28;1365;-72
2023/11/10 00:44:58;;;;;;;3.10;0.90;;;;;;;;;;484716;28;1293;-72
2023/11/10 00:45:13;;;;;;;3.38;1.00;;;;;;;;;;484617;28;1157;-73
2023/11/10 00:45:29;;;;;;;2.80;1.10;;;;;;;;;;484998;28;1318;-72
2023/11/10 00:45:44;;;;;;;2.40;0.95;;;;;;;;;;484968;28;1144;-72
2023/11/10 00:46:00;;;;;;;2.73;0.80;;;;;;;;;;484903;28;943;-72
2023/11/10 00:46:16;;;;;;;3.25;0.90;;;;;;;;;;484578;28;1136;-72
2023/11/10 00:46:31;;;;;;;3.40;1.07;;;;;;;;;;484355;28;1246;-72
2023/11/10 00:46:46;;;;;;;3.45;1.00;;;;;;;;;;482661;28;1331;-72
2023/11/10 00:47:02;;;;;;;3.50;0.80;;;;;;;;;;481594;28;1030;-72
2023/11/10 00:47:18;;;;;;;3.38;0.80;;;;;;;;;;482624;28;1311;-72
2023/11/10 00:47:33;;;;;;;2.75;0.80;;;;;;;;;;482765;28;1345;-72
2023/11/10 00:47:49;;;;;;;2.63;0.80;;;;;;;;;;482209;28;1050;-73
2023/11/10 00:48:04;;;;;;;2.33;0.80;;;;;;;;;;483047;28;1284;-72
2023/11/10 00:48:20;;;;;;;2.30;0.73;;;;;;;;;;484823;28;1271;-72
2023/11/10 00:48:35;;;;;;;2.25;0.80;;;;;;;;;;486760;28;1050;-72
2023/11/10 00:48:51;;;;;;;2.40;0.90;;;;;;;;;;486846;28;1435;-73
2023/11/10 00:49:08;;;;;;;2.55;0.90;;;;;;;;;;486636;28;1132;-72
2023/11/10 00:49:24;;;;;;;3.58;0.80;;;;;;;;;;484909;28;1356;-73
2023/11/10 00:49:39;;;;;;;3.80;0.85;;;;;;;;;;484359;28;1202;-73
2023/11/10 00:49:55;;;;;;;2.67;0.80;;;;;;;;;;485462;28;939;-72
2023/11/10 00:50:11;;;;;;;2.78;0.80;;;;;;;;;;486482;28;973;-73
2023/11/10 00:50:27;;;;;;;2.58;0.75;;;;;;;;;;486867;28;1203;-72
2023/11/10 00:50:42;;;;;;;2.20;0.80;;;;;;;;;;484603;28;1332;-72
2023/11/10 00:50:58;;;;;;;2.10;0.80;;;;;;;;;;484045;28;1113;-72
2023/11/10 00:51:13;;;;;;;2.75;0.88;;;;;;;;;;484832;28;1042;-72
2023/11/10 00:51:32;;;;;;;3.23;0.90;;;;;;;;;;485172;28;1026;-72
2023/11/10 00:51:48;;;;;;;2.80;0.90;;;;;;;;;;486687;28;1296;-72
2023/11/10 00:52:04;;;;;;;2.45;0.80;;;;;;;;;;486408;28;1273;-73
2023/11/10 00:52:20;;;;;;;2.60;0.70;;;;;;;;;;486464;28;1262;-72
2023/11/10 00:52:37;;;;;;;2.92;0.82;;;;;;;;;;486811;28;1254;-72
2023/11/10 00:52:52;;;;;;;3.22;0.88;;;;;;;;;;486484;28;1117;-72
2023/11/10 00:53:08;;;;;;;3.17;0.70;;;;;;;;;;486959;28;985;-72
2023/11/10 00:53:26;;;;;;;3.13;0.70;;;;;;;;;;486240;28;1099;-72
2023/11/10 00:53:42;;;;;;;2.83;0.90;;;;;;;;;;486148;28;1023;-73
2023/11/10 00:53:57;;;;;;;2.42;0.82;;;;;;;;;;486436;28;1288;-73
2023/11/10 00:54:13;;;;;;;2.20;0.77;;;;;;;;;;486876;28;1385;-72
2023/11/10 00:54:28;;;;;;;2.15;0.80;;;;;;;;;;486906;28;1202;-72
2023/11/10 00:54:46;;;;;;;2.50;0.80;;;;;;;;;;484962;28;1194;-72
2023/11/10 00:55:02;;;;;;;3.05;0.80;;;;;;;;;;484444;28;1388;-73
2023/11/10 00:55:17;;;;;;;2.58;0.80;;;;;;;;;;485233;28;1184;-73
2023/11/10 00:55:32;;;;;;;2.40;0.77;;;;;;;;;;484112;28;1161;-72
2023/11/10 00:55:49;;;;;;;2.83;0.80;;;;;;;;;;485594;28;1113;-72
2023/11/10 00:56:06;;;;;;;2.35;0.73;;;;;;;;;;486459;28;1072;-72
2023/11/10 00:56:21;;;;;;;1.83;0.70;;;;;;;;;;487128;28;1380;-72
2023/11/10 00:56:37;;;;;;;2.47;0.88;;;;;;;;;;486203;28;1088;-72
2023/11/10 00:56:52;;;;;;;4.17;0.90;;;;;;;;;;485878;28;1159;-73
2023/11/10 00:57:08;;;;;;;3.67;0.90;;;;;;;;;;487127;28;1086;-72
2023/11/10 00:57:23;;;;;;;2.25;0.85;;;;;;;;;;483615;28;1171;-72
2023/11/10 00:57:39;;;;;;;2.53;0.80;;;;;;;;;;484874;28;911;-72
2023/11/10 00:57:55;;;;;;;2.53;0.80;;;;;;;;;;484206;28;1207;-72
2023/11/10 00:58:10;;;;;;;2.20;0.80;;;;;;;;;;485216;28;1261;-72
2023/11/10 00:58:26;;;;;;;2.53;0.90;;;;;;;;;;483958;28;1191;-72
2023/11/10 00:58:41;;;;;;;3.97;1.10;;;;;;;;;;483146;28;1254;-72
2023/11/10 00:58:58;;;;;;;3.50;0.93;;;;;;;;;;483028;28;1590;-72
2023/11/10 00:59:14;;;;;;;2.90;0.90;;;;;;;;;;484236;28;1002;-72
2023/11/10 00:59:29;;;;;;;3.67;1.05;;;;;;;;;;485886;28;1077;-72
2023/11/10 00:59:45;;;;;;;4.25;1.17;;;;;;;;;;485448;28;925;-72
2023/11/10 01:00:01;;;;;;;3.30;0.90;;;;;;;;;;484031;28;1166;-72
2023/11/10 01:00:16;;;;;;;2.35;0.90;;;;;;;;;;483810;28;1171;-72
2023/11/10 01:00:33;;;;;;;2.88;1.00;;;;;;;;;;483552;28;1155;-72
2023/11/10 01:00:49;;;;;;;3.13;1.00;;;;;;;;;;483550;28;1225;-73
2023/11/10 01:01:05;;;;;;;2.97;1.00;;;;;;;;;;486207;28;949;-72
2023/11/10 01:01:20;;;;;;;2.75;1.00;;;;;;;;;;485430;28;1218;-71
2023/11/10 01:01:36;;;;;;;2.63;0.98;;;;;;;;;;485020;28;1185;-72
2023/11/10 01:01:52;;;;;;;3.37;1.03;;;;;;;;;;484282;28;1072;-72
2023/11/10 01:02:07;;;;;;;4.68;1.10;;;;;;;;;;484848;28;1998;-72
2023/11/10 01:02:23;;;;;;;4.25;0.98;;;;;;;;;;483809;28;1411;-72
2023/11/10 01:02:38;;;;;;;2.77;1.00;;;;;;;;;;483203;28;1320;-72
2023/11/10 01:02:54;;;;;;;2.30;0.90;;;;;;;;;;483316;28;981;-71
2023/11/10 01:03:10;;;;;;;2.70;0.98;;;;;;;;;;483380;28;1214;-72
2023/11/10 01:03:25;;;;;;;3.57;1.03;;;;;;;;;;482350;28;897;-72
2023/11/10 01:03:41;;;;;;;3.73;1.10;;;;;;;;;;484254;28;1071;-72
2023/11/10 01:03:58;;;;;;;2.93;1.00;;;;;;;;;;484754;28;1250;-72
2023/11/10 01:04:13;;;;;;;3.00;0.80;;;;;;;;;;484972;28;1393;-72
2023/11/10 01:04:29;;;;;;;3.22;0.70;;;;;;;;;;486688;28;1105;-72
2023/11/10 01:04:44;;;;;;;3.23;0.80;;;;;;;;;;485145;28;1174;-72
2023/11/10 01:05:00;;;;;;;2.92;0.90;;;;;;;;;;484739;28;1177;-72
2023/11/10 01:05:19;;;;;;;2.83;1.00;;;;;;;;;;484923;28;985;-72
2023/11/10 01:05:35;;;;;;;2.88;1.00;;;;;;;;;;486625;28;1634;-72
2023/11/10 01:05:50;;;;;;;2.50;0.83;;;;;;;;;;484995;28;1298;-72
2023/11/10 01:06:06;;;;;;;2.33;0.80;;;;;;;;;;484891;28;1264;-72
2023/11/10 01:06:22;;;;;;;2.67;0.90;;;;;;;;;;484208;28;1236;-72
2023/11/10 01:06:37;;;;;;;3.13;1.00;;;;;;;;;;485080;28;1326;-73
2023/11/10 01:06:52;;;;;;;3.28;1.05;;;;;;;;;;484880;28;1297;-72
2023/11/10 01:07:08;;;;;;;3.27;0.87;;;;;;;;;;483757;28;1209;-72
2023/11/10 01:07:24;;;;;;;2.45;0.82;;;;;;;;;;482315;28;1237;-72
2023/11/10 01:07:40;;;;;;;1.83;0.80;;;;;;;;;;482980;28;1187;-72
2023/11/10 01:07:55;;;;;;;1.75;0.70;;;;;;;;;;482960;28;1141;-73
2023/11/10 01:08:11;;;;;;;1.90;0.70;;;;;;;;;;482401;28;1262;-72
2023/11/10 01:08:26;;;;;;;2.07;0.70;;;;;;;;;;483181;28;982;-73
2023/11/10 01:08:42;;;;;;;2.67;0.80;;;;;;;;;;483499;28;1526;-72
2023/11/10 01:08:58;;;;;;;3.38;0.90;;;;;;;;;;484876;28;1423;-72
2023/11/10 01:09:13;;;;;;;2.67;0.90;;;;;;;;;;484635;28;1117;-72
2023/11/10 01:09:28;;;;;;;2.50;0.90;;;;;;;;;;485148;28;1201;-72
2023/11/10 01:09:44;;;;;;;3.27;0.97;;;;;;;;;;487135;28;1029;-72
2023/11/10 01:10:00;;;;;;;3.90;1.00;;;;;;;;;;487368;28;1391;-72
2023/11/10 01:10:15;;;;;;;3.53;1.07;;;;;;;;;;487763;28;1089;-72
2023/11/10 01:10:32;;;;;;;2.17;0.80;;;;;;;;;;488266;28;1159;-72
2023/11/10 01:10:48;;;;;;;3.38;0.95;;;;;;;;;;488324;28;1041;-72
2023/11/10 01:11:03;;;;;;;3.73;1.00;;;;;;;;;;488328;28;1295;-72
2023/11/10 01:11:19;;;;;;;2.38;0.82;;;;;;;;;;486177;28;1240;-72
2023/11/10 01:11:34;;;;;;;2.50;0.90;;;;;;;;;;484179;28;1286;-72
2023/11/10 01:11:50;;;;;;;2.47;0.80;;;;;;;;;;485240;28;902;-73
2023/11/10 01:12:06;;;;;;;3.60;0.90;;;;;;;;;;484258;28;1275;-72
2023/11/10 01:12:21;;;;;;;3.37;1.00;;;;;;;;;;485051;28;1033;-72
2023/11/10 01:12:37;;;;;;;2.67;0.82;;;;;;;;;;484500;28;1311;-72
2023/11/10 01:12:52;;;;;;;2.78;0.70;;;;;;;;;;485608;28;1035;-72
2023/11/10 01:13:08;;;;;;;2.70;0.70;;;;;;;;;;487570;28;1182;-73
2023/11/10 01:13:23;;;;;;;3.33;0.80;;;;;;;;;;487438;28;1000;-73
2023/11/10 01:13:39;;;;;;;3.10;0.90;;;;;;;;;;484957;28;1093;-73
2023/11/10 01:13:54;;;;;;;2.75;1.02;;;;;;;;;;484545;28;1057;-73
2023/11/10 01:14:10;;;;;;;2.37;0.83;;;;;;;;;;484591;28;1089;-72
2023/11/10 01:14:25;;;;;;;3.05;0.80;;;;;;;;;;483169;28;1264;-72
2023/11/10 01:14:41;;;;;;;4.07;0.90;;;;;;;;;;484873;28;1121;-72
2023/11/10 01:14:57;;;;;;;2.95;0.88;;;;;;;;;;485158;28;1076;-73
2023/11/10 01:15:15;;;;;;;1.63;0.90;;;;;;;;;;485937;28;1741;-73
2023/11/10 01:15:31;;;;;;;1.75;0.80;;;;;;;;;;486339;28;1028;-73
2023/11/10 01:15:46;;;;;;;2.47;0.90;;;;;;;;;;486880;28;1177;-73
2023/11/10 01:16:02;;;;;;;2.87;0.80;;;;;;;;;;486775;28;1115;-72
2023/11/10 01:16:19;;;;;;;3.05;0.80;;;;;;;;;;486594;28;1000;-72
2023/11/10 01:16:34;;;;;;;3.63;0.90;;;;;;;;;;487139;28;1123;-73
2023/11/10 01:16:50;;;;;;;3.27;0.80;;;;;;;;;;487294;28;1040;-72
2023/11/10 01:17:06;;;;;;;2.47;0.80;;;;;;;;;;486078;28;1316;-72
2023/11/10 01:17:22;;;;;;;2.10;0.90;;;;;;;;;;486719;28;1056;-72
2023/11/10 01:17:39;;;;;;;3.10;1.10;;;;;;;;;;487392;28;1120;-73
2023/11/10 01:17:54;;;;;;;3.80;1.17;;;;;;;;;;486606;28;1128;-72
2023/11/10 01:18:10;;;;;;;3.00;1.10;;;;;;;;;;486552;28;1036;-73
2023/11/10 01:18:25;;;;;;;2.78;0.90;;;;;;;;;;489265;28;1241;-72
2023/11/10 01:18:41;;;;;;;3.22;0.90;;;;;;;;;;488106;28;1143;-72
2023/11/10 01:18:57;;;;;;;2.97;1.00;;;;;;;;;;487509;28;1197;-72
2023/11/10 01:19:13;;;;;;;2.22;0.90;;;;;;;;;;488284;28;1037;-72
2023/11/10 01:19:28;;;;;;;2.13;0.82;;;;;;;;;;488776;28;1218;-73
2023/11/10 01:19:43;;;;;;;2.07;0.90;;;;;;;;;;488534;28;1143;-72
2023/11/10 01:20:00;;;;;;;2.07;0.87;;;;;;;;;;487780;28;996;-73
2023/11/10 01:20:15;;;;;;;2.75;0.80;;;;;;;;;;487993;28;1411;-73
2023/11/10 01:20:31;;;;;;;2.47;0.80;;;;;;;;;;485075;28;1132;-73
2023/11/10 01:20:47;;;;;;;1.85;0.80;;;;;;;;;;486916;28;1209;-72
2023/11/10 01:21:02;;;;;;;2.07;0.90;;;;;;;;;;486384;28;1222;-73
2023/11/10 01:21:18;;;;;;;2.42;0.90;;;;;;;;;;486582;28;1025;-73
2023/11/10 01:21:34;;;;;;;2.07;0.80;;;;;;;;;;487237;28;928;-72
2023/11/10 01:21:51;;;;;;;2.25;0.90;;;;;;;;;;485585;28;1380;-72
2023/11/10 01:22:09;;;;;;;3.45;0.90;;;;;;;;;;485951;28;2276;-73
2023/11/10 01:22:27;;;;;;;3.17;0.82;;;;;;;;;;488029;28;1288;-73
2023/11/10 01:22:43;;;;;;;2.67;0.80;;;;;;;;;;485485;28;1397;-72
2023/11/10 01:22:59;;;;;;;3.33;0.90;;;;;;;;;;484690;28;1061;-73
2023/11/10 01:23:15;;;;;;;2.92;0.90;;;;;;;;;;484517;28;1004;-72
2023/11/10 01:23:30;;;;;;;2.13;0.90;;;;;;;;;;484493;28;1025;-72
2023/11/10 01:23:46;;;;;;;2.43;0.90;;;;;;;;;;485686;28;1145;-72
2023/11/10 01:24:01;;;;;;;2.50;0.90;;;;;;;;;;486472;28;1272;-72
2023/11/10 01:24:17;;;;;;;1.60;0.80;;;;;;;;;;487063;28;1372;-72
2023/11/10 01:24:34;;;;;;;1.75;0.70;;;;;;;;;;484855;28;1194;-72
2023/11/10 01:24:49;;;;;;;2.17;0.80;;;;;;;;;;486002;28;1076;-72
2023/11/10 01:25:05;;;;;;;2.28;0.88;;;;;;;;;;485256;28;1097;-72
2023/11/10 01:25:20;;;;;;;2.73;0.83;;;;;;;;;;485224;28;1104;-73
2023/11/10 01:25:36;;;;;;;2.28;0.80;;;;;;;;;;485188;28;1175;-72
2023/11/10 01:25:51;;;;;;;2.33;0.90;;;;;;;;;;485426;28;1262;-73
2023/11/10 01:26:07;;;;;;;2.78;0.82;;;;;;;;;;486482;28;1627;-73
2023/11/10 01:26:24;;;;;;;2.97;0.73;;;;;;;;;;487379;28;1069;-72
2023/11/10 01:26:40;;;;;;;2.63;0.82;;;;;;;;;;485820;28;1410;-73
2023/11/10 01:26:55;;;;;;;2.50;0.80;;;;;;;;;;485527;28;1403;-72
2023/11/10 01:27:11;;;;;;;2.80;0.88;;;;;;;;;;485728;28;1466;-73
2023/11/10 01:27:26;;;;;;;2.23;0.90;;;;;;;;;;486371;28;1017;-73
2023/11/10 01:27:42;;;;;;;2.75;1.00;;;;;;;;;;484934;28;980;-72
2023/11/10 01:27:57;;;;;;;3.33;1.00;;;;;;;;;;484733;28;1210;-72
2023/11/10 01:28:13;;;;;;;2.40;0.88;;;;;;;;;;485028;28;1140;-72
2023/11/10 01:28:28;;;;;;;3.30;0.90;;;;;;;;;;484870;28;987;-72
2023/11/10 01:28:44;;;;;;;3.75;0.85;;;;;;;;;;484780;28;1060;-72
2023/11/10 01:28:59;;;;;;;3.43;0.90;;;;;;;;;;484821;28;1399;-72
2023/11/10 01:29:15;;;;;;;3.90;1.10;;;;;;;;;;487022;28;996;-72
2023/11/10 01:29:30;;;;;;;3.20;1.00;;;;;;;;;;486649;28;1077;-73
2023/11/10 01:29:46;;;;;;;2.55;0.90;;;;;;;;;;485062;28;1443;-72
2023/11/10 01:30:02;;;;;;;3.40;0.90;;;;;;;;;;486671;28;1120;-72
2023/11/10 01:30:19;;;;;;;3.53;1.05;;;;;;;;;;486454;28;1160;-73
2023/11/10 01:30:35;;;;;;;1.92;0.80;;;;;;;;;;486491;28;1372;-73
2023/11/10 01:30:52;;;;;;;2.30;0.77;;;;;;;;;;486619;28;1127;-72
2023/11/10 01:31:08;;;;;;;3.45;0.90;;;;;;;;;;486055;28;1366;-72
2023/11/10 01:31:24;;;;;;;3.72;0.98;;;;;;;;;;487191;28;1287;-72
2023/11/10 01:31:39;;;;;;;3.07;0.90;;;;;;;;;;489057;28;1482;-72
2023/11/10 01:31:55;;;;;;;2.80;0.80;;;;;;;;;;488599;28;1247;-73
2023/11/10 01:32:11;;;;;;;2.83;0.80;;;;;;;;;;487930;28;1332;-72
2023/11/10 01:32:27;;;;;;;2.97;0.80;;;;;;;;;;487741;28;1186;-72
2023/11/10 01:32:43;;;;;;;2.65;0.80;;;;;;;;;;487613;28;1081;-73
2023/11/10 01:33:00;;;;;;;2.63;0.80;;;;;;;;;;488015;28;1222;-72
2023/11/10 01:33:16;;;;;;;2.70;0.80;;;;;;;;;;487824;28;1055;-72
2023/11/10 01:33:31;;;;;;;3.23;0.73;;;;;;;;;;484934;28;1528;-72
2023/11/10 01:33:47;;;;;;;3.58;0.80;;;;;;;;;;483504;28;1022;-72
2023/11/10 01:34:02;;;;;;;2.92;0.90;;;;;;;;;;484210;28;1226;-72
2023/11/10 01:34:18;;;;;;;2.90;0.80;;;;;;;;;;484882;28;1226;-72
2023/11/10 01:34:34;;;;;;;2.80;0.77;;;;;;;;;;485592;28;1214;-72
2023/11/10 01:34:49;;;;;;;3.10;0.80;;;;;;;;;;483382;28;1203;-72
2023/11/10 01:35:05;;;;;;;2.92;0.90;;;;;;;;;;482712;28;1194;-72
2023/11/10 01:35:22;;;;;;;2.28;0.77;;;;;;;;;;482501;28;993;-72
2023/11/10 01:35:37;;;;;;;2.60;0.73;;;;;;;;;;483823;28;1266;-73
2023/11/10 01:35:53;;;;;;;2.33;0.70;;;;;;;;;;484011;28;970;-72
2023/11/10 01:36:08;;;;;;;1.97;0.70;;;;;;;;;;482946;28;1192;-72
2023/11/10 01:36:24;;;;;;;2.38;0.70;;;;;;;;;;482857;28;1331;-73
2023/11/10 01:36:39;;;;;;;2.42;0.70;;;;;;;;;;485196;28;1078;-72
2023/11/10 01:36:55;;;;;;;2.17;0.70;;;;;;;;;;485563;28;1029;-72
2023/11/10 01:37:10;;;;;;;1.85;0.75;;;;;;;;;;486600;28;1065;-72
2023/11/10 01:37:26;;;;;;;1.87;0.70;;;;;;;;;;484549;28;1158;-73
2023/11/10 01:37:42;;;;;;;3.70;0.80;;;;;;;;;;485210;28;947;-73
2023/11/10 01:37:57;;;;;;;4.25;0.82;;;;;;;;;;485522;28;1065;-72
2023/11/10 01:38:15;;;;;;;4.10;0.80;;;;;;;;;;485002;28;1161;-72
2023/11/10 01:38:30;;;;;;;3.55;0.80;;;;;;;;;;486897;28;945;-73
2023/11/10 01:38:46;;;;;;;2.60;0.90;;;;;;;;;;486901;28;1258;-72